Time;durP1;ratioP1;P1;durP2;ratioP2;P2;SDS_P1;SDS_P2;PMS_P1;PMS_P2;Temp;Humidity;BMP_temperature;BMP_pressure;BME280_temperature;BME280_humidity;BME280_pressure;Samples;Min_cycle;Max_cycle;Signal;HPM_P1;HPM_P2
2021/09/28 00:00:45;;;;;;;11.53;6.43;;;;;;;;;;5071319;28;20074;-59
2021/09/28 00:03:12;;;;;;;19.73;11.10;;;;;;;;;;5071600;28;20040;-58
2021/09/28 00:05:39;;;;;;;17.43;9.67;;;;;;;;;;5071228;28;20068;-58
2021/09/28 00:08:06;;;;;;;7.60;4.10;;;;;;;;;;5068502;28;20510;-58
2021/09/28 00:10:35;;;;;;;8.97;3.70;;;;;;;;;;5066197;28;20853;-58
2021/09/28 00:13:03;;;;;;;7.60;3.20;;;;;;;;;;5067635;28;20066;-58
2021/09/28 00:15:29;;;;;;;7.80;3.83;;;;;;;;;;5069956;28;20031;-58
2021/09/28 00:17:56;;;;;;;7.43;3.27;;;;;;;;;;5072092;28;20036;-58
2021/09/28 00:20:24;;;;;;;6.23;2.83;;;;;;;;;;5074756;28;20530;-57
2021/09/28 00:22:56;;;;;;;4.53;2.50;;;;;;;;;;5073890;28;20433;-57
2021/09/28 00:25:23;;;;;;;7.17;2.97;;;;;;;;;;5074923;28;20071;-58
2021/09/28 00:27:50;;;;;;;6.37;2.43;;;;;;;;;;5074922;28;20506;-58
2021/09/28 00:30:17;;;;;;;4.97;2.87;;;;;;;;;;5072038;28;20077;-58
2021/09/28 00:32:43;;;;;;;6.03;3.47;;;;;;;;;;5069525;28;20075;-57
2021/09/28 00:35:10;;;;;;;6.10;2.53;;;;;;;;;;5068973;28;20395;-58
2021/09/28 00:37:38;;;;;;;6.37;2.80;;;;;;;;;;5069528;28;20032;-57
2021/09/28 00:40:05;;;;;;;6.37;2.20;;;;;;;;;;5071659;28;20044;-57
2021/09/28 00:42:31;;;;;;;6.67;2.73;;;;;;;;;;5074405;28;20063;-58
2021/09/28 00:44:58;;;;;;;4.67;2.70;;;;;;;;;;5074473;28;20059;-58
2021/09/28 00:47:25;;;;;;;5.63;2.47;;;;;;;;;;5074676;28;20108;-58
2021/09/28 00:49:52;;;;;;;6.87;2.70;;;;;;;;;;5074366;28;20027;-57
2021/09/28 00:52:20;;;;;;;11.00;4.63;;;;;;;;;;5071938;28;20089;-57
2021/09/28 00:54:47;;;;;;;5.93;2.50;;;;;;;;;;5068758;28;20024;-57
2021/09/28 00:57:15;;;;;;;4.87;2.10;;;;;;;;;;5069221;28;20028;-57
2021/09/28 00:59:42;;;;;;;21.83;10.73;;;;;;;;;;5069118;28;20035;-57
2021/09/28 01:02:10;;;;;;;18.43;9.03;;;;;;;;;;5070726;28;20032;-57
2021/09/28 01:04:36;;;;;;;4.80;2.83;;;;;;;;;;5074030;28;20395;-57
2021/09/28 01:07:04;;;;;;;5.17;2.93;;;;;;;;;;5073953;28;20028;-59
2021/09/28 01:09:32;;;;;;;7.40;2.77;;;;;;;;;;5073864;28;20021;-57
2021/09/28 01:11:58;;;;;;;3.87;2.47;;;;;;;;;;5073950;28;20035;-58
2021/09/28 01:14:25;;;;;;;5.00;2.43;;;;;;;;;;5071980;28;20129;-58
2021/09/28 01:16:52;;;;;;;7.93;4.00;;;;;;;;;;5068691;28;20422;-57
2021/09/28 01:19:19;;;;;;;6.30;3.17;;;;;;;;;;5068927;28;20029;-58
2021/09/28 01:21:46;;;;;;;9.87;4.87;;;;;;;;;;5068679;28;20017;-58
2021/09/28 01:24:14;;;;;;;19.93;9.43;;;;;;;;;;5068340;28;20483;-57
2021/09/28 01:26:40;;;;;;;10.90;5.00;;;;;;;;;;5073241;28;20024;-57
2021/09/28 01:29:08;;;;;;;14.53;7.77;;;;;;;;;;5073632;28;20048;-58
2021/09/28 01:31:36;;;;;;;12.50;7.10;;;;;;;;;;5069599;28;20467;-58
2021/09/28 01:34:03;;;;;;;9.40;6.00;;;;;;;;;;5053538;28;20036;-58
2021/09/28 01:36:30;;;;;;;10.60;5.73;;;;;;;;;;5052005;28;20032;-58
2021/09/28 01:38:56;;;;;;;6.10;3.80;;;;;;;;;;5048713;28;20540;-57
2021/09/28 01:41:23;;;;;;;23.07;12.17;;;;;;;;;;5061060;28;20100;-58
2021/09/28 01:43:50;;;;;;;9.33;5.37;;;;;;;;;;5068009;28;20055;-59
2021/09/28 01:46:17;;;;;;;6.23;3.37;;;;;;;;;;5069111;28;20098;-58
2021/09/28 01:48:54;;;;;;;15.43;8.57;;;;;;;;;;5072993;28;20040;-58
2021/09/28 01:51:20;;;;;;;17.40;9.10;;;;;;;;;;5073368;28;20479;-56
2021/09/28 01:53:47;;;;;;;18.73;7.67;;;;;;;;;;5073335;28;20029;-59
2021/09/28 01:56:27;;;;;;;13.27;6.37;;;;;;;;;;5073145;28;20032;-59
2021/09/28 01:58:58;;;;;;;8.40;4.07;;;;;;;;;;5071263;28;20060;-60
2021/09/28 02:01:24;;;;;;;6.30;3.43;;;;;;;;;;5068188;28;20020;-59
2021/09/28 02:03:51;;;;;;;7.83;3.17;;;;;;;;;;5067861;28;20075;-61
2021/09/28 02:06:18;;;;;;;4.63;2.50;;;;;;;;;;5068288;28;20055;-56
2021/09/28 02:08:48;;;;;;;7.90;3.03;;;;;;;;;;5068635;28;20029;-57
2021/09/28 02:11:15;;;;;;;7.27;2.87;;;;;;;;;;5072643;28;20059;-57
2021/09/28 02:13:42;;;;;;;5.73;3.10;;;;;;;;;;5073124;28;20025;-57
2021/09/28 02:16:09;;;;;;;5.53;3.13;;;;;;;;;;5072749;28;20037;-57
2021/09/28 02:18:36;;;;;;;6.67;2.50;;;;;;;;;;5072571;28;20063;-60
2021/09/28 02:21:03;;;;;;;3.47;2.40;;;;;;;;;;5071082;28;20488;-56
2021/09/28 02:23:30;;;;;;;4.63;2.67;;;;;;;;;;5067495;28;20078;-56
2021/09/28 02:25:57;;;;;;;4.90;2.80;;;;;;;;;;5067488;28;20039;-57
2021/09/28 02:28:24;;;;;;;4.33;2.53;;;;;;;;;;5066503;28;20047;-58
2021/09/28 02:30:51;;;;;;;5.57;2.60;;;;;;;;;;5067798;28;20109;-57
2021/09/28 02:33:17;;;;;;;6.13;2.70;;;;;;;;;;5072478;28;20017;-57
2021/09/28 02:35:45;;;;;;;3.80;2.20;;;;;;;;;;5072165;28;20016;-56
2021/09/28 02:38:12;;;;;;;7.00;3.20;;;;;;;;;;5072369;28;20027;-57
2021/09/28 02:40:39;;;;;;;7.80;3.83;;;;;;;;;;5072432;28;20024;-56
2021/09/28 02:43:06;;;;;;;16.10;7.50;;;;;;;;;;5071372;28;20483;-57
2021/09/28 02:45:33;;;;;;;10.67;5.33;;;;;;;;;;5066506;28;20107;-57
2021/09/28 02:47:59;;;;;;;6.00;3.07;;;;;;;;;;5067116;28;20046;-57
2021/09/28 02:50:26;;;;;;;4.17;2.73;;;;;;;;;;5067038;28;20060;-58
2021/09/28 02:52:53;;;;;;;5.47;2.50;;;;;;;;;;5067122;28;20099;-57
2021/09/28 02:55:20;;;;;;;4.07;2.70;;;;;;;;;;5071949;28;20100;-58
2021/09/28 02:57:47;;;;;;;6.10;2.37;;;;;;;;;;5071834;28;20028;-58
2021/09/28 03:00:14;;;;;;;5.93;2.50;;;;;;;;;;5071939;28;20033;-57
2021/09/28 03:02:41;;;;;;;5.30;2.83;;;;;;;;;;5072131;28;20020;-57
2021/09/28 03:05:07;;;;;;;4.37;2.57;;;;;;;;;;5071757;28;20029;-57
2021/09/28 03:07:34;;;;;;;3.60;2.07;;;;;;;;;;5066740;28;20379;-57
2021/09/28 03:10:01;;;;;;;4.13;2.40;;;;;;;;;;5066970;28;20527;-57
2021/09/28 03:12:28;;;;;;;4.70;2.60;;;;;;;;;;5067022;28;20063;-57
2021/09/28 03:14:54;;;;;;;3.83;2.30;;;;;;;;;;5066404;28;20020;-58
2021/09/28 03:17:21;;;;;;;5.60;2.40;;;;;;;;;;5071410;28;20072;-57
2021/09/28 03:19:48;;;;;;;4.67;2.50;;;;;;;;;;5071932;28;20028;-57
2021/09/28 03:22:15;;;;;;;5.93;2.40;;;;;;;;;;5072101;28;20024;-57
2021/09/28 03:24:42;;;;;;;3.43;2.00;;;;;;;;;;5071792;28;20043;-58
2021/09/28 03:27:08;;;;;;;7.77;2.27;;;;;;;;;;5071988;28;20495;-57
2021/09/28 03:29:35;;;;;;;5.33;2.60;;;;;;;;;;5066596;28;20542;-57
2021/09/28 03:32:02;;;;;;;11.13;3.97;;;;;;;;;;5066707;28;20025;-57
2021/09/28 03:34:29;;;;;;;3.97;2.43;;;;;;;;;;5066565;28;20028;-57
2021/09/28 03:36:56;;;;;;;4.60;2.73;;;;;;;;;;5066534;28;20099;-57
2021/09/28 03:39:22;;;;;;;3.43;2.00;;;;;;;;;;5071171;28;20036;-58
2021/09/28 03:41:49;;;;;;;3.17;1.83;;;;;;;;;;5071725;28;20056;-57
2021/09/28 03:44:16;;;;;;;7.03;2.17;;;;;;;;;;5071403;28;20048;-57
2021/09/28 03:46:43;;;;;;;3.37;2.30;;;;;;;;;;5072009;28;20029;-57
2021/09/28 03:49:10;;;;;;;5.90;2.30;;;;;;;;;;5075001;28;20024;-57
2021/09/28 03:51:36;;;;;;;6.17;2.17;;;;;;;;;;5070463;28;20415;-57
2021/09/28 03:54:03;;;;;;;9.13;2.33;;;;;;;;;;5070182;28;20071;-57
2021/09/28 03:56:30;;;;;;;5.03;2.40;;;;;;;;;;5070374;28;20024;-57
2021/09/28 03:58:57;;;;;;;4.50;2.50;;;;;;;;;;5069961;28;20085;-57
2021/09/28 04:01:23;;;;;;;4.27;2.20;;;;;;;;;;5074234;28;20025;-57
2021/09/28 04:03:50;;;;;;;5.07;1.90;;;;;;;;;;5075357;28;20029;-57
2021/09/28 04:06:17;;;;;;;4.10;2.00;;;;;;;;;;5074954;28;20028;-57
2021/09/28 04:08:44;;;;;;;3.70;2.23;;;;;;;;;;5075255;28;20031;-58
2021/09/28 04:11:11;;;;;;;4.50;2.30;;;;;;;;;;5075199;28;20151;-57
2021/09/28 04:13:46;;;;;;;3.73;2.13;;;;;;;;;;5070208;28;20035;-57
2021/09/28 04:16:15;;;;;;;6.17;2.23;;;;;;;;;;5069802;28;20107;-57
2021/09/28 04:18:43;;;;;;;5.17;2.87;;;;;;;;;;5069819;28;20488;-57
2021/09/28 04:21:10;;;;;;;5.67;2.80;;;;;;;;;;5069332;28;20062;-57
2021/09/28 04:23:40;;;;;;;3.50;2.27;;;;;;;;;;5073725;28;20627;-57
2021/09/28 04:26:07;;;;;;;4.70;2.63;;;;;;;;;;5074954;28;20021;-57
2021/09/28 04:28:35;;;;;;;6.43;2.90;;;;;;;;;;5074893;28;20046;-57
2021/09/28 04:31:02;;;;;;;8.37;3.10;;;;;;;;;;5074796;28;20028;-57
2021/09/28 04:33:28;;;;;;;4.90;2.40;;;;;;;;;;5073653;28;20035;-57
2021/09/28 04:35:55;;;;;;;6.47;2.50;;;;;;;;;;5069732;28;20031;-57
2021/09/28 04:38:22;;;;;;;3.63;2.10;;;;;;;;;;5069705;28;20066;-57
2021/09/28 04:40:49;;;;;;;3.83;2.17;;;;;;;;;;5069617;28;20029;-57
2021/09/28 04:43:16;;;;;;;4.97;2.43;;;;;;;;;;5069395;28;20041;-57
2021/09/28 04:45:43;;;;;;;5.30;2.53;;;;;;;;;;5073213;28;20024;-57
2021/09/28 04:48:10;;;;;;;4.97;2.07;;;;;;;;;;5073923;28;20376;-58
2021/09/28 04:50:37;;;;;;;5.97;2.60;;;;;;;;;;5074210;28;20024;-57
2021/09/28 04:53:04;;;;;;;11.70;2.70;;;;;;;;;;5074193;28;20048;-57
2021/09/28 04:55:31;;;;;;;6.27;3.30;;;;;;;;;;5074555;28;20033;-57
2021/09/28 04:57:58;;;;;;;8.63;2.87;;;;;;;;;;5069912;28;20499;-58
2021/09/28 05:00:25;;;;;;;4.27;2.07;;;;;;;;;;5068993;28;20112;-58
2021/09/28 05:02:52;;;;;;;5.30;2.17;;;;;;;;;;5069055;28;20041;-57
2021/09/28 05:05:19;;;;;;;6.97;1.87;;;;;;;;;;5068892;28;20021;-57
2021/09/28 05:07:46;;;;;;;3.43;2.07;;;;;;;;;;5071991;28;20417;-57
2021/09/28 05:10:13;;;;;;;8.13;2.50;;;;;;;;;;5074172;28;20028;-57
2021/09/28 05:12:40;;;;;;;4.30;2.23;;;;;;;;;;5073841;28;20543;-58
2021/09/28 05:15:07;;;;;;;4.77;2.00;;;;;;;;;;5073755;28;20020;-57
2021/09/28 05:17:35;;;;;;;5.50;2.00;;;;;;;;;;5073875;28;20025;-57
2021/09/28 05:20:05;;;;;;;5.90;2.90;;;;;;;;;;5070018;28;20035;-57
2021/09/28 05:22:32;;;;;;;3.97;2.37;;;;;;;;;;5068160;28;20095;-57
2021/09/28 05:24:59;;;;;;;9.27;2.80;;;;;;;;;;5068617;28;20099;-56
2021/09/28 05:27:26;;;;;;;4.90;2.90;;;;;;;;;;5068552;28;20024;-57
2021/09/28 05:29:53;;;;;;;6.33;2.23;;;;;;;;;;5071689;28;20487;-57
2021/09/28 05:32:20;;;;;;;3.57;2.43;;;;;;;;;;5073746;28;20130;-57
2021/09/28 05:34:47;;;;;;;5.30;2.33;;;;;;;;;;5073598;28;20031;-57
2021/09/28 05:37:14;;;;;;;3.80;2.43;;;;;;;;;;5073530;28;20020;-57
2021/09/28 05:39:40;;;;;;;7.33;1.97;;;;;;;;;;5072931;28;20135;-57
2021/09/28 05:42:08;;;;;;;6.40;2.17;;;;;;;;;;5069535;28;20051;-57
2021/09/28 05:44:34;;;;;;;4.10;2.43;;;;;;;;;;5068242;28;20356;-57
2021/09/28 05:47:02;;;;;;;4.30;2.40;;;;;;;;;;5068011;28;20056;-57
2021/09/28 05:49:29;;;;;;;3.53;1.60;;;;;;;;;;5068019;28;20032;-58
2021/09/28 05:51:57;;;;;;;3.93;2.30;;;;;;;;;;5070986;28;20020;-57
2021/09/28 05:54:24;;;;;;;3.77;2.20;;;;;;;;;;5072835;28;20095;-57
2021/09/28 05:56:52;;;;;;;5.87;2.57;;;;;;;;;;5072803;28;20029;-57
2021/09/28 05:59:19;;;;;;;6.00;2.17;;;;;;;;;;5073068;28;20765;-57
2021/09/28 06:01:48;;;;;;;5.07;2.47;;;;;;;;;;5073155;28;20480;-57
2021/09/28 06:04:16;;;;;;;4.00;2.40;;;;;;;;;;5069590;28;20078;-57
2021/09/28 06:06:43;;;;;;;3.93;2.10;;;;;;;;;;5067699;28;20026;-57
2021/09/28 06:09:10;;;;;;;4.03;2.47;;;;;;;;;;5067591;28;20353;-57
2021/09/28 06:11:37;;;;;;;4.83;2.27;;;;;;;;;;5067052;28;20087;-57
2021/09/28 06:14:03;;;;;;;4.50;2.63;;;;;;;;;;5070086;28;20063;-56
2021/09/28 06:16:30;;;;;;;5.50;2.53;;;;;;;;;;5072894;28;20054;-57
2021/09/28 06:18:57;;;;;;;4.03;2.00;;;;;;;;;;5072657;28;20024;-57
2021/09/28 06:21:24;;;;;;;5.10;2.53;;;;;;;;;;5072692;28;20096;-57
2021/09/28 06:23:53;;;;;;;4.80;2.40;;;;;;;;;;5072559;28;20036;-57
2021/09/28 06:26:20;;;;;;;3.80;2.33;;;;;;;;;;5069359;28;20511;-57
2021/09/28 06:28:47;;;;;;;6.13;2.13;;;;;;;;;;5067306;28;20040;-57
2021/09/28 06:31:14;;;;;;;4.00;2.30;;;;;;;;;;5067183;28;20418;-57
2021/09/28 06:33:41;;;;;;;3.80;2.10;;;;;;;;;;5067400;28;20103;-56
2021/09/28 06:36:08;;;;;;;3.97;2.07;;;;;;;;;;5069549;28;20016;-57
2021/09/28 06:38:34;;;;;;;5.47;2.33;;;;;;;;;;5072580;28;20023;-57
2021/09/28 06:41:01;;;;;;;4.23;2.33;;;;;;;;;;5072108;28;20031;-57
2021/09/28 06:43:28;;;;;;;3.80;1.93;;;;;;;;;;5072134;28;20043;-57
2021/09/28 06:45:55;;;;;;;5.20;2.17;;;;;;;;;;5072267;28;20342;-57
2021/09/28 06:48:22;;;;;;;4.80;2.43;;;;;;;;;;5069553;28;20483;-57
2021/09/28 06:50:49;;;;;;;9.83;2.53;;;;;;;;;;5067242;28;20044;-57
2021/09/28 06:53:15;;;;;;;6.67;2.23;;;;;;;;;;5067234;28;20055;-57
2021/09/28 06:55:42;;;;;;;5.07;2.13;;;;;;;;;;5067230;28;20028;-57
2021/09/28 06:58:09;;;;;;;4.37;2.10;;;;;;;;;;5068560;28;20376;-57
2021/09/28 07:00:37;;;;;;;4.07;2.20;;;;;;;;;;5072166;28;20036;-56
2021/09/28 07:03:04;;;;;;;3.40;2.47;;;;;;;;;;5071953;28;20187;-57
2021/09/28 07:05:32;;;;;;;3.93;2.17;;;;;;;;;;5071774;28;20029;-56
2021/09/28 07:07:59;;;;;;;5.50;2.23;;;;;;;;;;5072106;28;20107;-57
2021/09/28 07:10:26;;;;;;;5.67;2.13;;;;;;;;;;5069978;28;20063;-57
2021/09/28 07:12:53;;;;;;;6.33;2.63;;;;;;;;;;5066518;28;20468;-57
2021/09/28 07:15:20;;;;;;;4.57;2.50;;;;;;;;;;5066811;28;20020;-58
2021/09/28 07:17:47;;;;;;;5.40;2.23;;;;;;;;;;5066867;28;20111;-57
2021/09/28 07:20:14;;;;;;;6.90;2.67;;;;;;;;;;5068208;28;20032;-57
2021/09/28 07:22:41;;;;;;;3.97;2.43;;;;;;;;;;5074656;28;20077;-57
2021/09/28 07:25:08;;;;;;;4.57;2.50;;;;;;;;;;5076012;28;20062;-57
2021/09/28 07:27:34;;;;;;;4.43;2.20;;;;;;;;;;5076061;28;20102;-58
2021/09/28 07:30:01;;;;;;;8.43;3.57;;;;;;;;;;5075657;28;20032;-57
2021/09/28 07:32:28;;;;;;;4.23;2.20;;;;;;;;;;5074032;28;20106;-58
2021/09/28 07:34:56;;;;;;;5.73;2.20;;;;;;;;;;5070673;28;20032;-57
2021/09/28 07:37:27;;;;;;;3.63;2.23;;;;;;;;;;5070496;28;20093;-58
2021/09/28 07:39:57;;;;;;;9.57;2.70;;;;;;;;;;5070217;28;20544;-57
2021/09/28 07:42:25;;;;;;;6.43;2.40;;;;;;;;;;5071875;28;20033;-56
2021/09/28 07:44:52;;;;;;;6.20;2.47;;;;;;;;;;5075436;28;20024;-57
2021/09/28 07:47:19;;;;;;;7.37;2.50;;;;;;;;;;5075694;28;20028;-57
2021/09/28 07:49:46;;;;;;;6.83;2.90;;;;;;;;;;5075545;28;20110;-56
2021/09/28 07:52:13;;;;;;;5.20;2.70;;;;;;;;;;5075286;28;20487;-57
2021/09/28 07:54:40;;;;;;;6.50;2.57;;;;;;;;;;5073598;28;20040;-57
2021/09/28 07:57:08;;;;;;;4.27;2.40;;;;;;;;;;5070064;28;20483;-57
2021/09/28 07:59:37;;;;;;;3.67;2.10;;;;;;;;;;5069668;28;20032;-57
2021/09/28 08:02:03;;;;;;;3.83;2.40;;;;;;;;;;5070082;28;20404;-57
2021/09/28 08:04:31;;;;;;;3.63;2.17;;;;;;;;;;5071181;28;20033;-57
2021/09/28 08:06:58;;;;;;;6.00;2.10;;;;;;;;;;5075323;28;20032;-56
2021/09/28 08:09:24;;;;;;;5.97;2.90;;;;;;;;;;5075293;28;20021;-57
2021/09/28 08:11:52;;;;;;;5.10;2.83;;;;;;;;;;5075206;28;20020;-57
2021/09/28 08:14:19;;;;;;;7.20;2.87;;;;;;;;;;5074520;28;20036;-56
2021/09/28 08:16:46;;;;;;;3.63;2.20;;;;;;;;;;5073914;28;20401;-56
2021/09/28 08:19:13;;;;;;;5.13;2.20;;;;;;;;;;5069710;28;20033;-57
2021/09/28 08:21:39;;;;;;;4.57;2.60;;;;;;;;;;5069560;28;20517;-56
2021/09/28 08:24:07;;;;;;;6.83;2.30;;;;;;;;;;5069401;28;20037;-57
2021/09/28 08:29:09;;;;;;;6.13;3.03;;;;;;;;;;5074280;28;20434;-57
2021/09/28 08:31:40;;;;;;;6.10;2.70;;;;;;;;;;5074522;28;20062;-57
2021/09/28 08:34:07;;;;;;;3.73;2.57;;;;;;;;;;5074135;28;20059;-56
2021/09/28 08:36:34;;;;;;;4.10;2.40;;;;;;;;;;5074837;28;20476;-57
2021/09/28 08:39:01;;;;;;;4.87;2.33;;;;;;;;;;5073173;28;20073;-57
2021/09/28 08:41:31;;;;;;;6.60;2.20;;;;;;;;;;5069319;28;20102;-56
2021/09/28 08:43:58;;;;;;;5.17;2.83;;;;;;;;;;5068983;28;20028;-56
2021/09/28 08:46:25;;;;;;;8.77;2.37;;;;;;;;;;5069740;28;20056;-57
2021/09/28 08:48:52;;;;;;;4.17;2.17;;;;;;;;;;5070009;28;20024;-57
2021/09/28 08:51:18;;;;;;;6.33;2.80;;;;;;;;;;5074291;28;20063;-57
2021/09/28 08:53:45;;;;;;;8.17;2.47;;;;;;;;;;5074435;28;20051;-56
2021/09/28 08:56:14;;;;;;;4.87;2.27;;;;;;;;;;5074414;28;20056;-56
2021/09/28 08:58:56;;;;;;;11.10;2.30;;;;;;;;;;5073910;28;20105;-56
2021/09/28 09:01:23;;;;;;;11.27;2.37;;;;;;;;;;5072228;28;20033;-58
2021/09/28 09:03:50;;;;;;;3.57;2.13;;;;;;;;;;5068868;28;20561;-57
2021/09/28 09:06:17;;;;;;;5.27;2.20;;;;;;;;;;5068780;28;20480;-58
2021/09/28 09:08:48;;;;;;;5.87;2.57;;;;;;;;;;5069022;28;20039;-56
2021/09/28 09:11:16;;;;;;;6.37;2.30;;;;;;;;;;5069772;28;20033;-56
2021/09/28 09:13:45;;;;;;;4.50;2.30;;;;;;;;;;5073899;28;20078;-57
2021/09/28 09:16:15;;;;;;;9.37;2.70;;;;;;;;;;5074072;28;20387;-57
2021/09/28 09:18:43;;;;;;;8.93;2.43;;;;;;;;;;5074034;28;20563;-56
2021/09/28 09:21:11;;;;;;;6.27;2.37;;;;;;;;;;5073491;28;20107;-57
2021/09/28 09:23:39;;;;;;;6.63;2.60;;;;;;;;;;5071721;28;20039;-56
2021/09/28 09:26:06;;;;;;;5.73;1.90;;;;;;;;;;5068361;28;20081;-57
2021/09/28 09:28:34;;;;;;;5.03;1.97;;;;;;;;;;5068224;28;20075;-58
2021/09/28 09:31:34;;;;;;;4.57;2.07;;;;;;;;;;5068575;28;20024;-56
2021/09/28 09:34:09;;;;;;;5.50;1.77;;;;;;;;;;5070765;28;20103;-56
2021/09/28 09:36:36;;;;;;;4.03;1.98;;;;;;;;;;5073500;28;20027;-58
2021/09/28 09:39:05;;;;;;;5.60;2.50;;;;;;;;;;5073492;28;20455;-56
2021/09/28 09:41:32;;;;;;;5.50;2.10;;;;;;;;;;5073452;28;20029;-57
2021/09/28 09:44:06;;;;;;;5.10;3.37;;;;;;;;;;5073318;28;20063;-58
2021/09/28 09:46:47;;;;;;;7.43;2.40;;;;;;;;;;5069056;28;20032;-56
2021/09/28 09:49:15;;;;;;;6.93;2.60;;;;;;;;;;5068172;28;20032;-57
2021/09/28 09:51:43;;;;;;;3.00;1.87;;;;;;;;;;5068209;28;20472;-57
2021/09/28 09:57:14;;;;;;;5.03;2.10;;;;;;;;;;5071772;28;20035;-56
2021/09/28 09:59:42;;;;;;;5.87;2.13;;;;;;;;;;5072968;28;20480;-56
2021/09/28 10:02:09;;;;;;;3.97;2.13;;;;;;;;;;5072907;28;20189;-57
2021/09/28 10:04:36;;;;;;;2.63;1.70;;;;;;;;;;5072660;28;20039;-56
2021/09/28 10:07:05;;;;;;;5.53;2.20;;;;;;;;;;5072525;28;20051;-56
2021/09/28 10:09:39;;;;;;;12.40;2.53;;;;;;;;;;5067907;28;20059;-56
2021/09/28 10:12:07;;;;;;;4.30;2.40;;;;;;;;;;5067817;28;20027;-56
2021/09/28 10:14:39;;;;;;;4.80;2.90;;;;;;;;;;5067474;28;20439;-56
2021/09/28 10:17:31;;;;;;;4.70;2.07;;;;;;;;;;5067226;28;20039;-56
2021/09/28 10:20:03;;;;;;;6.10;1.90;;;;;;;;;;5061292;28;20395;-57
2021/09/28 10:22:55;;;;;;;5.80;1.90;;;;;;;;;;5072620;28;20121;-57
2021/09/28 10:25:22;;;;;;;2.97;1.67;;;;;;;;;;5072529;28;20036;-56
2021/09/28 10:27:50;;;;;;;6.67;2.40;;;;;;;;;;5072399;28;20037;-57
2021/09/28 10:30:40;;;;;;;3.40;2.10;;;;;;;;;;5070684;28;20107;-57
2021/09/28 10:33:24;;;;;;;3.93;2.30;;;;;;;;;;5054514;28;20803;-57
2021/09/28 10:36:16;;;;;;;9.17;2.57;;;;;;;;;;5067302;28;20078;-57
2021/09/28 10:38:46;;;;;;;6.23;2.00;;;;;;;;;;5046858;28;20230;-57
2021/09/28 10:41:45;;;;;;;8.87;1.83;;;;;;;;;;5050669;28;20032;-56
2021/09/28 10:44:29;;;;;;;6.97;2.00;;;;;;;;;;5008605;28;20116;-57
2021/09/28 10:46:59;;;;;;;4.07;2.17;;;;;;;;;;5059437;28;20040;-56
2021/09/28 10:49:27;;;;;;;2.63;1.70;;;;;;;;;;5072493;28;20502;-57
2021/09/28 10:52:14;;;;;;;4.30;1.80;;;;;;;;;;5071617;28;20082;-57
2021/09/28 10:54:59;;;;;;;3.27;1.80;;;;;;;;;;5049921;28;20067;-56
2021/09/28 10:57:46;;;;;;;8.32;1.90;;;;;;;;;;5066959;28;20020;-57
2021/09/28 11:00:12;;;;;;;4.90;2.00;;;;;;;;;;5049961;28;20036;-56
2021/09/28 11:02:56;;;;;;;5.73;1.90;;;;;;;;;;5067903;28;20029;-56
2021/09/28 11:05:38;;;;;;;3.13;1.90;;;;;;;;;;5071816;28;20041;-56
2021/09/28 11:08:05;;;;;;;3.70;1.83;;;;;;;;;;5072174;28;20499;-56
2021/09/28 11:10:33;;;;;;;4.97;2.23;;;;;;;;;;5071931;28;20073;-56
2021/09/28 11:13:00;;;;;;;9.10;2.23;;;;;;;;;;5072308;28;20031;-56
2021/09/28 11:15:27;;;;;;;4.87;1.87;;;;;;;;;;5068864;28;20118;-57
2021/09/28 11:17:54;;;;;;;2.47;1.83;;;;;;;;;;5066574;28;20163;-57
2021/09/28 11:20:22;;;;;;;3.27;1.80;;;;;;;;;;5066951;28;20028;-56
2021/09/28 11:23:02;;;;;;;2.93;1.87;;;;;;;;;;5066503;28;20028;-57
2021/09/28 11:25:31;;;;;;;5.93;2.07;;;;;;;;;;5069472;28;20039;-56
2021/09/28 11:28:05;;;;;;;4.13;2.20;;;;;;;;;;5071791;28;20025;-56
2021/09/28 11:30:34;;;;;;;3.30;1.75;;;;;;;;;;5072083;28;20032;-56
2021/09/28 11:33:10;;;;;;;5.73;2.33;;;;;;;;;;5071961;28;20040;-56
2021/09/28 11:35:38;;;;;;;2.97;1.80;;;;;;;;;;5071003;28;20031;-56
2021/09/28 11:38:06;;;;;;;3.13;1.87;;;;;;;;;;5067623;28;20521;-57
2021/09/28 11:40:38;;;;;;;4.83;1.90;;;;;;;;;;5066600;28;20025;-57
2021/09/28 11:43:22;;;;;;;4.53;1.67;;;;;;;;;;5066543;28;20171;-56
2021/09/28 11:46:08;;;;;;;3.10;1.70;;;;;;;;;;5066170;28;20021;-58
2021/09/28 11:48:39;;;;;;;3.27;1.63;;;;;;;;;;5071547;28;20020;-57
2021/09/28 11:51:07;;;;;;;2.77;1.77;;;;;;;;;;5071980;28;20020;-56
2021/09/28 11:53:40;;;;;;;3.77;1.80;;;;;;;;;;5071670;28;20017;-57
2021/09/28 11:56:08;;;;;;;10.60;1.80;;;;;;;;;;5071554;28;20108;-57
2021/09/28 11:58:37;;;;;;;3.10;1.60;;;;;;;;;;5071009;28;20028;-56
2021/09/28 12:01:08;;;;;;;4.93;2.03;;;;;;;;;;5066258;28;20024;-57
2021/09/28 12:03:40;;;;;;;4.77;1.90;;;;;;;;;;5066108;28;20028;-56
2021/09/28 12:06:22;;;;;;;2.57;1.60;;;;;;;;;;5066355;28;20107;-56
2021/09/28 12:08:48;;;;;;;4.57;2.00;;;;;;;;;;5067857;28;20040;-57
2021/09/28 12:11:15;;;;;;;4.10;1.60;;;;;;;;;;5075396;28;20095;-57
2021/09/28 12:13:48;;;;;;;4.07;2.00;;;;;;;;;;5075112;28;20025;-56
2021/09/28 12:16:17;;;;;;;3.53;1.70;;;;;;;;;;5074893;28;20017;-56
2021/09/28 12:18:44;;;;;;;2.77;1.70;;;;;;;;;;5074546;28;20035;-56
2021/09/28 12:21:22;;;;;;;5.73;1.83;;;;;;;;;;5073783;28;20036;-56
2021/09/28 12:24:09;;;;;;;3.03;1.93;;;;;;;;;;5069455;28;20089;-57
2021/09/28 12:26:36;;;;;;;5.97;2.20;;;;;;;;;;5069315;28;20431;-56
2021/09/28 12:29:11;;;;;;;5.53;2.03;;;;;;;;;;5069127;28;20028;-57
2021/09/28 12:31:37;;;;;;;;;;;;;;;;;;5072220;28;20030;-56
2021/09/28 12:34:05;;;;;;;3.60;1.93;;;;;;;;;;5074694;28;19904;-56
2021/09/28 12:36:32;;;;;;;7.00;1.80;;;;;;;;;;5074898;28;20020;-57
2021/09/28 12:39:15;;;;;;;3.13;1.97;;;;;;;;;;5074470;28;20086;-56
2021/09/28 12:41:58;;;;;;;6.63;3.73;;;;;;;;;;5074660;28;20066;-56
2021/09/28 12:44:25;;;;;;;3.37;2.20;;;;;;;;;;5070934;28;20033;-58
2021/09/28 12:46:52;;;;;;;3.43;2.13;;;;;;;;;;5068972;28;20154;-57
2021/09/28 12:49:32;;;;;;;7.93;2.23;;;;;;;;;;5069378;28;20031;-56
2021/09/28 12:52:00;;;;;;;4.47;2.13;;;;;;;;;;5069082;28;20024;-58
2021/09/28 12:54:28;;;;;;;3.63;2.10;;;;;;;;;;5072269;28;20467;-57
2021/09/28 12:56:55;;;;;;;4.43;2.13;;;;;;;;;;5074345;28;20039;-56
2021/09/28 12:59:22;;;;;;;3.83;2.07;;;;;;;;;;5074318;28;20406;-57
2021/09/28 13:01:49;;;;;;;4.90;2.33;;;;;;;;;;5074221;28;20024;-56
2021/09/28 13:04:17;;;;;;;3.83;2.50;;;;;;;;;;5073686;28;20089;-57
2021/09/28 13:06:54;;;;;;;3.07;2.20;;;;;;;;;;5070726;28;20391;-56
2021/09/28 13:09:21;;;;;;;7.17;2.03;;;;;;;;;;5069010;28;20095;-59
2021/09/28 13:11:47;;;;;;;4.37;2.37;;;;;;;;;;5068772;28;20055;-56
2021/09/28 13:14:14;;;;;;;4.40;2.83;;;;;;;;;;5068484;28;20031;-58
2021/09/28 13:16:41;;;;;;;4.53;2.80;;;;;;;;;;5062204;28;20082;-56
2021/09/28 13:19:08;;;;;;;6.07;2.27;;;;;;;;;;5066119;28;20078;-56
2021/09/28 13:21:35;;;;;;;4.30;2.20;;;;;;;;;;5059970;28;20025;-55
2021/09/28 13:24:02;;;;;;;4.63;2.37;;;;;;;;;;5053823;28;20040;-55
2021/09/28 13:26:28;;;;;;;4.27;2.03;;;;;;;;;;5072896;28;20032;-55
2021/09/28 13:28:56;;;;;;;8.53;2.70;;;;;;;;;;5069252;28;20071;-57
2021/09/28 13:31:22;;;;;;;5.13;2.10;;;;;;;;;;5048888;28;20593;-57
2021/09/28 13:33:49;;;;;;;8.00;2.50;;;;;;;;;;5048416;28;20033;-57
2021/09/28 13:36:25;;;;;;;4.17;2.70;;;;;;;;;;5048775;28;20025;-57
2021/09/28 13:38:52;;;;;;;8.57;3.27;;;;;;;;;;5060295;28;20052;-56
2021/09/28 13:41:20;;;;;;;5.63;3.13;;;;;;;;;;5073712;28;20099;-56
2021/09/28 13:43:48;;;;;;;6.03;3.20;;;;;;;;;;5073220;28;20037;-57
2021/09/28 13:46:15;;;;;;;11.80;3.73;;;;;;;;;;5073376;28;20533;-57
2021/09/28 13:48:41;;;;;;;17.57;3.70;;;;;;;;;;5072725;28;20029;-56
2021/09/28 13:51:08;;;;;;;7.13;3.17;;;;;;;;;;5070535;28;20028;-57
2021/09/28 13:53:35;;;;;;;6.47;3.47;;;;;;;;;;5068549;28;20024;-57
2021/09/28 13:56:02;;;;;;;6.03;3.53;;;;;;;;;;5068268;28;20500;-57
2021/09/28 13:58:29;;;;;;;3.57;2.70;;;;;;;;;;5068079;28;20573;-57
2021/09/28 14:00:55;;;;;;;4.07;2.93;;;;;;;;;;5070146;28;20530;-57
2021/09/28 14:03:22;;;;;;;6.07;3.40;;;;;;;;;;5072827;28;20383;-57
2021/09/28 14:05:49;;;;;;;7.37;3.50;;;;;;;;;;5072719;28;20025;-58
2021/09/28 14:08:19;;;;;;;5.17;3.00;;;;;;;;;;5073048;28;20446;-59
2021/09/28 14:10:46;;;;;;;5.73;3.47;;;;;;;;;;5073208;28;20024;-57
2021/09/28 14:13:13;;;;;;;4.57;3.07;;;;;;;;;;5070228;28;20028;-58
2021/09/28 14:15:40;;;;;;;5.73;3.00;;;;;;;;;;5068027;28;20028;-58
2021/09/28 14:18:07;;;;;;;5.93;2.97;;;;;;;;;;5067730;28;20032;-58
2021/09/28 14:20:33;;;;;;;8.60;3.20;;;;;;;;;;5063014;28;20039;-58
2021/09/28 14:23:00;;;;;;;6.63;3.07;;;;;;;;;;5049919;28;20044;-58
2021/09/28 14:25:27;;;;;;;5.27;2.90;;;;;;;;;;5052832;28;20021;-58
2021/09/28 14:27:54;;;;;;;6.07;3.43;;;;;;;;;;5070341;28;20479;-58
2021/09/28 14:30:20;;;;;;;4.17;2.63;;;;;;;;;;5072519;28;20387;-58
2021/09/28 14:32:47;;;;;;;6.40;3.00;;;;;;;;;;5071999;28;20378;-58
2021/09/28 14:35:14;;;;;;;5.57;3.13;;;;;;;;;;5070543;28;20107;-58
2021/09/28 14:37:41;;;;;;;8.17;2.87;;;;;;;;;;5067004;28;20496;-58
2021/09/28 14:40:08;;;;;;;5.60;2.93;;;;;;;;;;5067669;28;20035;-59
2021/09/28 14:42:35;;;;;;;8.90;3.27;;;;;;;;;;5067640;28;20029;-58
2021/09/28 14:45:02;;;;;;;8.90;3.30;;;;;;;;;;5068800;28;20021;-58
2021/09/28 14:47:28;;;;;;;4.67;2.70;;;;;;;;;;5071955;28;20054;-58
2021/09/28 14:49:55;;;;;;;8.57;3.27;;;;;;;;;;5072467;28;20047;-58
2021/09/28 14:52:22;;;;;;;4.33;2.90;;;;;;;;;;5072696;28;20105;-58
2021/09/28 14:54:49;;;;;;;4.87;2.60;;;;;;;;;;5072140;28;20017;-58
2021/09/28 14:57:15;;;;;;;8.90;2.90;;;;;;;;;;5070917;28;20029;-58